sensor_id;sensor_type;location;lat;lon;timestamp;temperature;humidity
62126;DHT22;48112;53.282;6.150;2022-07-01T00:00:26;16.40;85.60
62126;DHT22;48112;53.282;6.150;2022-07-01T00:02:30;16.30;85.60
62126;DHT22;48112;53.282;6.150;2022-07-01T00:04:34;16.30;85.50
62126;DHT22;48112;53.282;6.150;2022-07-01T00:06:56;16.30;85.50
62126;DHT22;48112;53.282;6.150;2022-07-01T00:09:01;16.30;85.80
62126;DHT22;48112;53.282;6.150;2022-07-01T00:11:06;16.30;85.60
62126;DHT22;48112;53.282;6.150;2022-07-01T00:13:09;16.30;85.70
62126;DHT22;48112;53.282;6.150;2022-07-01T00:15:13;16.30;85.80
62126;DHT22;48112;53.282;6.150;2022-07-01T00:17:16;16.30;85.80
62126;DHT22;48112;53.282;6.150;2022-07-01T00:19:19;16.30;86.10
62126;DHT22;48112;53.282;6.150;2022-07-01T00:21:23;16.30;85.90
62126;DHT22;48112;53.282;6.150;2022-07-01T00:23:26;16.30;86.00
62126;DHT22;48112;53.282;6.150;2022-07-01T00:25:30;16.30;86.10
62126;DHT22;48112;53.282;6.150;2022-07-01T00:27:36;16.30;86.20
62126;DHT22;48112;53.282;6.150;2022-07-01T00:29:40;16.30;86.20
62126;DHT22;48112;53.282;6.150;2022-07-01T00:31:43;16.30;86.10
62126;DHT22;48112;53.282;6.150;2022-07-01T00:33:46;16.30;86.10
62126;DHT22;48112;53.282;6.150;2022-07-01T00:35:49;16.30;86.10
62126;DHT22;48112;53.282;6.150;2022-07-01T00:37:54;16.20;86.00
62126;DHT22;48112;53.282;6.150;2022-07-01T00:39:57;16.30;86.10
62126;DHT22;48112;53.282;6.150;2022-07-01T00:42:02;16.30;86.10
62126;DHT22;48112;53.282;6.150;2022-07-01T00:44:06;16.30;86.20
62126;DHT22;48112;53.282;6.150;2022-07-01T00:46:17;16.30;86.20
62126;DHT22;48112;53.282;6.150;2022-07-01T00:48:24;16.30;86.10
62126;DHT22;48112;53.282;6.150;2022-07-01T00:50:27;16.30;86.60
62126;DHT22;48112;53.282;6.150;2022-07-01T00:52:30;16.30;86.10
62126;DHT22;48112;53.282;6.150;2022-07-01T00:54:35;16.30;86.10
62126;DHT22;48112;53.282;6.150;2022-07-01T00:56:39;16.30;86.00
62126;DHT22;48112;53.282;6.150;2022-07-01T00:58:45;16.30;86.20
62126;DHT22;48112;53.282;6.150;2022-07-01T01:00:48;16.30;86.20
62126;DHT22;48112;53.282;6.150;2022-07-01T01:02:52;16.30;86.20
62126;DHT22;48112;53.282;6.150;2022-07-01T01:04:55;16.30;86.20
62126;DHT22;48112;53.282;6.150;2022-07-01T01:06:59;16.30;86.10
62126;DHT22;48112;53.282;6.150;2022-07-01T01:09:03;16.30;86.20
62126;DHT22;48112;53.282;6.150;2022-07-01T01:11:07;16.20;86.00
62126;DHT22;48112;53.282;6.150;2022-07-01T01:13:10;16.20;86.20
62126;DHT22;48112;53.282;6.150;2022-07-01T01:15:19;16.20;86.10
62126;DHT22;48112;53.282;6.150;2022-07-01T01:17:23;16.20;86.10
62126;DHT22;48112;53.282;6.150;2022-07-01T01:19:26;16.20;86.00
62126;DHT22;48112;53.282;6.150;2022-07-01T01:21:31;16.20;86.10
62126;DHT22;48112;53.282;6.150;2022-07-01T01:23:34;16.20;86.00
62126;DHT22;48112;53.282;6.150;2022-07-01T01:25:37;16.20;86.10
62126;DHT22;48112;53.282;6.150;2022-07-01T01:27:40;16.30;86.10
62126;DHT22;48112;53.282;6.150;2022-07-01T01:29:44;16.30;86.00
62126;DHT22;48112;53.282;6.150;2022-07-01T01:31:47;16.30;85.80
62126;DHT22;48112;53.282;6.150;2022-07-01T01:33:50;16.30;85.90
62126;DHT22;48112;53.282;6.150;2022-07-01T01:35:53;16.20;85.80
62126;DHT22;48112;53.282;6.150;2022-07-01T01:37:58;16.20;85.80
62126;DHT22;48112;53.282;6.150;2022-07-01T01:40:01;16.20;85.80
62126;DHT22;48112;53.282;6.150;2022-07-01T01:42:04;16.20;85.70
62126;DHT22;48112;53.282;6.150;2022-07-01T01:44:08;16.20;85.70
62126;DHT22;48112;53.282;6.150;2022-07-01T01:46:11;16.20;85.70
62126;DHT22;48112;53.282;6.150;2022-07-01T01:48:14;16.20;85.80
62126;DHT22;48112;53.282;6.150;2022-07-01T01:50:17;16.10;85.60
62126;DHT22;48112;53.282;6.150;2022-07-01T01:52:21;16.10;85.50
62126;DHT22;48112;53.282;6.150;2022-07-01T01:54:26;16.10;85.50
62126;DHT22;48112;53.282;6.150;2022-07-01T01:56:30;16.10;85.50
62126;DHT22;48112;53.282;6.150;2022-07-01T01:58:33;16.10;85.60
62126;DHT22;48112;53.282;6.150;2022-07-01T02:00:36;16.10;85.50
62126;DHT22;48112;53.282;6.150;2022-07-01T02:02:39;16.10;85.50
62126;DHT22;48112;53.282;6.150;2022-07-01T02:04:42;16.10;85.60
62126;DHT22;48112;53.282;6.150;2022-07-01T02:06:46;16.10;85.50
62126;DHT22;48112;53.282;6.150;2022-07-01T02:08:49;16.00;85.50
62126;DHT22;48112;53.282;6.150;2022-07-01T02:10:55;16.00;85.60
62126;DHT22;48112;53.282;6.150;2022-07-01T02:13:03;16.00;85.70
62126;DHT22;48112;53.282;6.150;2022-07-01T02:15:07;15.90;85.70
62126;DHT22;48112;53.282;6.150;2022-07-01T02:17:10;15.90;85.70
62126;DHT22;48112;53.282;6.150;2022-07-01T02:19:13;15.90;85.70
62126;DHT22;48112;53.282;6.150;2022-07-01T02:21:17;15.90;85.80
62126;DHT22;48112;53.282;6.150;2022-07-01T02:23:20;15.90;85.90
62126;DHT22;48112;53.282;6.150;2022-07-01T02:25:23;15.90;85.90
62126;DHT22;48112;53.282;6.150;2022-07-01T02:27:30;15.90;85.90
62126;DHT22;48112;53.282;6.150;2022-07-01T02:29:34;15.90;86.20
62126;DHT22;48112;53.282;6.150;2022-07-01T02:31:37;15.90;86.00
62126;DHT22;48112;53.282;6.150;2022-07-01T02:33:40;15.90;86.20
62126;DHT22;48112;53.282;6.150;2022-07-01T02:35:43;15.90;86.20
62126;DHT22;48112;53.282;6.150;2022-07-01T02:37:50;15.90;86.20
62126;DHT22;48112;53.282;6.150;2022-07-01T02:39:53;15.90;86.20
62126;DHT22;48112;53.282;6.150;2022-07-01T02:41:56;15.90;86.30
62126;DHT22;48112;53.282;6.150;2022-07-01T02:44:18;15.90;86.30
62126;DHT22;48112;53.282;6.150;2022-07-01T02:46:22;15.90;86.40
62126;DHT22;48112;53.282;6.150;2022-07-01T02:48:26;15.80;86.40
62126;DHT22;48112;53.282;6.150;2022-07-01T02:50:29;15.80;86.50
62126;DHT22;48112;53.282;6.150;2022-07-01T02:52:32;15.80;86.40
62126;DHT22;48112;53.282;6.150;2022-07-01T02:54:36;15.80;86.60
62126;DHT22;48112;53.282;6.150;2022-07-01T02:56:40;15.80;86.60
62126;DHT22;48112;53.282;6.150;2022-07-01T02:58:43;15.70;86.60
62126;DHT22;48112;53.282;6.150;2022-07-01T03:00:48;15.70;86.60
62126;DHT22;48112;53.282;6.150;2022-07-01T03:02:54;15.70;86.70
62126;DHT22;48112;53.282;6.150;2022-07-01T03:04:57;15.70;86.80
62126;DHT22;48112;53.282;6.150;2022-07-01T03:07:01;15.70;86.70
62126;DHT22;48112;53.282;6.150;2022-07-01T03:09:04;15.70;86.70
62126;DHT22;48112;53.282;6.150;2022-07-01T03:11:07;15.70;86.70
62126;DHT22;48112;53.282;6.150;2022-07-01T03:13:16;15.70;86.80
62126;DHT22;48112;53.282;6.150;2022-07-01T03:15:21;15.70;86.70
62126;DHT22;48112;53.282;6.150;2022-07-01T03:17:26;15.60;86.70
62126;DHT22;48112;53.282;6.150;2022-07-01T03:19:29;15.60;86.70
62126;DHT22;48112;53.282;6.150;2022-07-01T03:21:32;15.60;86.60
62126;DHT22;48112;53.282;6.150;2022-07-01T03:23:36;15.60;86.60
62126;DHT22;48112;53.282;6.150;2022-07-01T03:25:39;15.60;86.60
62126;DHT22;48112;53.282;6.150;2022-07-01T03:27:42;15.60;86.70
62126;DHT22;48112;53.282;6.150;2022-07-01T03:29:49;15.60;86.70
62126;DHT22;48112;53.282;6.150;2022-07-01T03:31:53;15.60;86.80
62126;DHT22;48112;53.282;6.150;2022-07-01T03:33:57;15.60;86.80
62126;DHT22;48112;53.282;6.150;2022-07-01T03:36:00;15.60;86.80
62126;DHT22;48112;53.282;6.150;2022-07-01T03:38:04;15.60;86.70
62126;DHT22;48112;53.282;6.150;2022-07-01T03:40:08;15.60;86.60
62126;DHT22;48112;53.282;6.150;2022-07-01T03:42:12;15.70;86.60
62126;DHT22;48112;53.282;6.150;2022-07-01T03:44:15;15.60;86.60
62126;DHT22;48112;53.282;6.150;2022-07-01T03:46:18;15.70;86.60
62126;DHT22;48112;53.282;6.150;2022-07-01T03:48:24;15.70;86.60
62126;DHT22;48112;53.282;6.150;2022-07-01T03:50:29;15.70;86.40
62126;DHT22;48112;53.282;6.150;2022-07-01T03:52:32;15.70;86.40
62126;DHT22;48112;53.282;6.150;2022-07-01T03:54:35;15.70;86.40
62126;DHT22;48112;53.282;6.150;2022-07-01T03:56:41;15.70;86.30
62126;DHT22;48112;53.282;6.150;2022-07-01T03:58:45;15.70;86.30
62126;DHT22;48112;53.282;6.150;2022-07-01T04:00:51;15.70;86.30
62126;DHT22;48112;53.282;6.150;2022-07-01T04:02:56;15.70;86.40
62126;DHT22;48112;53.282;6.150;2022-07-01T04:04:59;15.70;86.30
62126;DHT22;48112;53.282;6.150;2022-07-01T04:07:05;15.70;86.20
62126;DHT22;48112;53.282;6.150;2022-07-01T04:09:08;15.70;86.20
62126;DHT22;48112;53.282;6.150;2022-07-01T04:11:12;15.70;86.20
62126;DHT22;48112;53.282;6.150;2022-07-01T04:13:15;15.70;86.20
62126;DHT22;48112;53.282;6.150;2022-07-01T04:15:33;15.70;86.10
62126;DHT22;48112;53.282;6.150;2022-07-01T04:17:37;15.70;86.10
62126;DHT22;48112;53.282;6.150;2022-07-01T04:19:40;15.70;86.10
62126;DHT22;48112;53.282;6.150;2022-07-01T04:21:43;15.80;86.20
62126;DHT22;48112;53.282;6.150;2022-07-01T04:24:06;15.80;86.20
62126;DHT22;48112;53.282;6.150;2022-07-01T04:26:10;15.80;86.10
62126;DHT22;48112;53.282;6.150;2022-07-01T04:28:35;15.80;86.00
62126;DHT22;48112;53.282;6.150;2022-07-01T04:30:38;15.80;86.00
62126;DHT22;48112;53.282;6.150;2022-07-01T04:32:41;15.80;86.00
62126;DHT22;48112;53.282;6.150;2022-07-01T04:34:45;15.80;86.00
62126;DHT22;48112;53.282;6.150;2022-07-01T04:36:48;15.80;85.80
62126;DHT22;48112;53.282;6.150;2022-07-01T04:38:51;15.80;85.80
62126;DHT22;48112;53.282;6.150;2022-07-01T04:40:55;15.80;85.70
62126;DHT22;48112;53.282;6.150;2022-07-01T04:43:16;15.80;85.70
62126;DHT22;48112;53.282;6.150;2022-07-01T04:45:19;15.80;85.60
62126;DHT22;48112;53.282;6.150;2022-07-01T04:47:22;15.80;86.10
62126;DHT22;48112;53.282;6.150;2022-07-01T04:49:26;15.80;85.50
62126;DHT22;48112;53.282;6.150;2022-07-01T04:51:29;15.80;85.50
62126;DHT22;48112;53.282;6.150;2022-07-01T04:53:33;15.90;85.60
62126;DHT22;48112;53.282;6.150;2022-07-01T04:55:36;15.90;85.50
62126;DHT22;48112;53.282;6.150;2022-07-01T04:57:40;15.90;85.50
62126;DHT22;48112;53.282;6.150;2022-07-01T04:59:43;15.90;85.40
62126;DHT22;48112;53.282;6.150;2022-07-01T05:01:47;15.90;85.30
62126;DHT22;48112;53.282;6.150;2022-07-01T05:03:51;15.90;85.10
62126;DHT22;48112;53.282;6.150;2022-07-01T05:05:54;15.80;85.00
62126;DHT22;48112;53.282;6.150;2022-07-01T05:07:57;15.80;85.00
62126;DHT22;48112;53.282;6.150;2022-07-01T05:10:01;15.90;84.90
62126;DHT22;48112;53.282;6.150;2022-07-01T05:12:04;15.90;85.30
62126;DHT22;48112;53.282;6.150;2022-07-01T05:14:09;15.90;84.70
62126;DHT22;48112;53.282;6.150;2022-07-01T05:16:13;15.90;84.70
62126;DHT22;48112;53.282;6.150;2022-07-01T05:18:16;15.90;84.70
62126;DHT22;48112;53.282;6.150;2022-07-01T05:20:42;15.90;84.60
62126;DHT22;48112;53.282;6.150;2022-07-01T05:23:09;16.00;84.80
62126;DHT22;48112;53.282;6.150;2022-07-01T05:25:12;16.00;84.60
62126;DHT22;48112;53.282;6.150;2022-07-01T05:27:15;16.00;84.40
62126;DHT22;48112;53.282;6.150;2022-07-01T05:29:19;16.00;84.20
62126;DHT22;48112;53.282;6.150;2022-07-01T05:31:22;16.00;84.20
62126;DHT22;48112;53.282;6.150;2022-07-01T05:33:26;16.00;84.10
62126;DHT22;48112;53.282;6.150;2022-07-01T05:35:29;16.00;84.00
62126;DHT22;48112;53.282;6.150;2022-07-01T05:37:32;16.00;83.90
62126;DHT22;48112;53.282;6.150;2022-07-01T05:39:35;16.00;83.90
62126;DHT22;48112;53.282;6.150;2022-07-01T05:41:46;16.10;84.00
62126;DHT22;48112;53.282;6.150;2022-07-01T05:43:49;16.10;84.20
62126;DHT22;48112;53.282;6.150;2022-07-01T05:45:53;16.10;83.90
62126;DHT22;48112;53.282;6.150;2022-07-01T05:47:56;16.10;83.70
62126;DHT22;48112;53.282;6.150;2022-07-01T05:50:00;16.20;83.70
62126;DHT22;48112;53.282;6.150;2022-07-01T05:52:03;16.20;83.70
62126;DHT22;48112;53.282;6.150;2022-07-01T05:54:06;16.20;83.70
62126;DHT22;48112;53.282;6.150;2022-07-01T05:56:10;16.30;83.90
62126;DHT22;48112;53.282;6.150;2022-07-01T05:58:13;16.30;83.90
62126;DHT22;48112;53.282;6.150;2022-07-01T06:00:17;16.40;83.90
62126;DHT22;48112;53.282;6.150;2022-07-01T06:02:21;16.40;83.70
62126;DHT22;48112;53.282;6.150;2022-07-01T06:04:24;16.50;83.80
62126;DHT22;48112;53.282;6.150;2022-07-01T06:06:28;16.50;83.80
62126;DHT22;48112;53.282;6.150;2022-07-01T06:08:32;16.60;83.80
62126;DHT22;48112;53.282;6.150;2022-07-01T06:10:35;16.60;83.60
62126;DHT22;48112;53.282;6.150;2022-07-01T06:12:38;16.60;83.60
62126;DHT22;48112;53.282;6.150;2022-07-01T06:14:41;16.70;83.50
62126;DHT22;48112;53.282;6.150;2022-07-01T06:16:44;16.70;83.50
62126;DHT22;48112;53.282;6.150;2022-07-01T06:18:49;16.70;83.50
62126;DHT22;48112;53.282;6.150;2022-07-01T06:20:52;16.70;83.40
62126;DHT22;48112;53.282;6.150;2022-07-01T06:22:55;16.80;83.40
62126;DHT22;48112;53.282;6.150;2022-07-01T06:24:59;16.80;83.50
62126;DHT22;48112;53.282;6.150;2022-07-01T06:27:03;16.90;83.50
62126;DHT22;48112;53.282;6.150;2022-07-01T06:29:07;16.90;83.30
62126;DHT22;48112;53.282;6.150;2022-07-01T06:31:10;16.90;83.30
62126;DHT22;48112;53.282;6.150;2022-07-01T06:33:13;17.00;83.30
62126;DHT22;48112;53.282;6.150;2022-07-01T06:35:18;17.10;83.40
62126;DHT22;48112;53.282;6.150;2022-07-01T06:37:23;17.20;83.30
62126;DHT22;48112;53.282;6.150;2022-07-01T06:39:27;17.30;83.30
62126;DHT22;48112;53.282;6.150;2022-07-01T06:41:30;17.40;83.40
62126;DHT22;48112;53.282;6.150;2022-07-01T06:43:34;17.50;83.20
62126;DHT22;48112;53.282;6.150;2022-07-01T06:45:37;17.60;83.10
62126;DHT22;48112;53.282;6.150;2022-07-01T06:47:41;17.70;82.90
62126;DHT22;48112;53.282;6.150;2022-07-01T06:49:44;17.80;82.60
62126;DHT22;48112;53.282;6.150;2022-07-01T06:51:53;17.90;82.40
62126;DHT22;48112;53.282;6.150;2022-07-01T06:53:56;17.90;82.10
62126;DHT22;48112;53.282;6.150;2022-07-01T06:55:59;18.00;82.00
62126;DHT22;48112;53.282;6.150;2022-07-01T06:58:03;18.20;82.20
62126;DHT22;48112;53.282;6.150;2022-07-01T07:00:08;18.20;82.50
62126;DHT22;48112;53.282;6.150;2022-07-01T07:02:12;18.30;82.50
62126;DHT22;48112;53.282;6.150;2022-07-01T07:04:15;18.40;82.10
62126;DHT22;48112;53.282;6.150;2022-07-01T07:06:28;18.40;81.60
62126;DHT22;48112;53.282;6.150;2022-07-01T07:08:33;18.50;80.80
62126;DHT22;48112;53.282;6.150;2022-07-01T07:10:36;18.60;80.10
62126;DHT22;48112;53.282;6.150;2022-07-01T07:12:40;18.60;79.40
62126;DHT22;48112;53.282;6.150;2022-07-01T07:14:43;18.50;79.30
62126;DHT22;48112;53.282;6.150;2022-07-01T07:16:46;18.50;79.60
62126;DHT22;48112;53.282;6.150;2022-07-01T07:18:50;18.60;80.00
62126;DHT22;48112;53.282;6.150;2022-07-01T07:20:53;18.70;81.00
62126;DHT22;48112;53.282;6.150;2022-07-01T07:23:01;18.70;80.70
62126;DHT22;48112;53.282;6.150;2022-07-01T07:25:07;18.70;79.50
62126;DHT22;48112;53.282;6.150;2022-07-01T07:27:10;18.60;78.50
62126;DHT22;48112;53.282;6.150;2022-07-01T07:29:14;18.60;78.50
62126;DHT22;48112;53.282;6.150;2022-07-01T07:31:17;18.50;77.80
62126;DHT22;48112;53.282;6.150;2022-07-01T07:33:21;18.50;77.60
62126;DHT22;48112;53.282;6.150;2022-07-01T07:35:25;18.50;77.40
62126;DHT22;48112;53.282;6.150;2022-07-01T07:37:31;18.40;77.30
62126;DHT22;48112;53.282;6.150;2022-07-01T07:39:34;18.40;76.90
62126;DHT22;48112;53.282;6.150;2022-07-01T07:41:39;18.40;76.60
62126;DHT22;48112;53.282;6.150;2022-07-01T07:43:42;18.40;76.50
62126;DHT22;48112;53.282;6.150;2022-07-01T07:45:46;18.40;76.50
62126;DHT22;48112;53.282;6.150;2022-07-01T07:47:49;18.40;76.60
62126;DHT22;48112;53.282;6.150;2022-07-01T07:49:53;18.40;77.10
62126;DHT22;48112;53.282;6.150;2022-07-01T07:51:56;18.60;77.80
62126;DHT22;48112;53.282;6.150;2022-07-01T07:53:59;18.80;77.00
62126;DHT22;48112;53.282;6.150;2022-07-01T07:56:05;19.00;77.20
62126;DHT22;48112;53.282;6.150;2022-07-01T07:58:09;19.50;76.80
62126;DHT22;48112;53.282;6.150;2022-07-01T08:00:13;19.90;76.00
62126;DHT22;48112;53.282;6.150;2022-07-01T08:02:17;20.20;74.10
62126;DHT22;48112;53.282;6.150;2022-07-01T08:04:26;20.50;73.60
62126;DHT22;48112;53.282;6.150;2022-07-01T08:06:29;20.90;73.30
62126;DHT22;48112;53.282;6.150;2022-07-01T08:08:33;21.50;72.20
62126;DHT22;48112;53.282;6.150;2022-07-01T08:10:36;22.10;71.00
62126;DHT22;48112;53.282;6.150;2022-07-01T08:12:39;22.60;69.10
62126;DHT22;48112;53.282;6.150;2022-07-01T08:14:44;23.10;67.50
62126;DHT22;48112;53.282;6.150;2022-07-01T08:16:47;23.60;63.20
62126;DHT22;48112;53.282;6.150;2022-07-01T08:18:51;23.80;63.90
62126;DHT22;48112;53.282;6.150;2022-07-01T08:20:54;24.20;63.40
62126;DHT22;48112;53.282;6.150;2022-07-01T08:22:57;24.70;61.30
62126;DHT22;48112;53.282;6.150;2022-07-01T08:25:01;25.00;60.10
62126;DHT22;48112;53.282;6.150;2022-07-01T08:27:05;25.30;58.60
62126;DHT22;48112;53.282;6.150;2022-07-01T08:29:08;25.60;57.40
62126;DHT22;48112;53.282;6.150;2022-07-01T08:31:13;26.00;55.70
62126;DHT22;48112;53.282;6.150;2022-07-01T08:33:17;26.10;54.40
62126;DHT22;48112;53.282;6.150;2022-07-01T08:35:20;25.80;53.50
62126;DHT22;48112;53.282;6.150;2022-07-01T08:37:23;25.50;52.70
62126;DHT22;48112;53.282;6.150;2022-07-01T08:39:26;25.40;52.70
62126;DHT22;48112;53.282;6.150;2022-07-01T08:41:29;25.20;51.90
62126;DHT22;48112;53.282;6.150;2022-07-01T08:43:33;25.00;51.50
62126;DHT22;48112;53.282;6.150;2022-07-01T08:45:37;24.90;51.90
62126;DHT22;48112;53.282;6.150;2022-07-01T08:47:52;24.90;52.30
62126;DHT22;48112;53.282;6.150;2022-07-01T08:49:59;25.30;51.00
62126;DHT22;48112;53.282;6.150;2022-07-01T08:52:03;25.70;51.50
62126;DHT22;48112;53.282;6.150;2022-07-01T08:54:06;26.20;50.90
62126;DHT22;48112;53.282;6.150;2022-07-01T08:56:09;26.60;50.40
62126;DHT22;48112;53.282;6.150;2022-07-01T08:58:30;26.90;49.50
62126;DHT22;48112;53.282;6.150;2022-07-01T09:00:33;27.20;49.70
62126;DHT22;48112;53.282;6.150;2022-07-01T09:02:54;27.30;48.10
62126;DHT22;48112;53.282;6.150;2022-07-01T09:05:04;27.20;43.00
62126;DHT22;48112;53.282;6.150;2022-07-01T09:07:09;27.10;45.30
62126;DHT22;48112;53.282;6.150;2022-07-01T09:09:14;27.00;46.90
62126;DHT22;48112;53.282;6.150;2022-07-01T09:11:19;26.90;46.50
62126;DHT22;48112;53.282;6.150;2022-07-01T09:13:22;27.10;46.40
62126;DHT22;48112;53.282;6.150;2022-07-01T09:15:27;27.40;47.20
62126;DHT22;48112;53.282;6.150;2022-07-01T09:17:38;27.80;46.90
62126;DHT22;48112;53.282;6.150;2022-07-01T09:19:49;28.40;44.50
62126;DHT22;48112;53.282;6.150;2022-07-01T09:21:54;28.80;43.70
62126;DHT22;48112;53.282;6.150;2022-07-01T09:24:02;29.00;44.70
62126;DHT22;48112;53.282;6.150;2022-07-01T09:26:06;29.50;42.80
62126;DHT22;48112;53.282;6.150;2022-07-01T09:28:11;29.70;42.40
62126;DHT22;48112;53.282;6.150;2022-07-01T09:30:15;29.80;41.50
62126;DHT22;48112;53.282;6.150;2022-07-01T09:32:20;29.80;41.20
62126;DHT22;48112;53.282;6.150;2022-07-01T09:34:24;29.80;40.90
62126;DHT22;48112;53.282;6.150;2022-07-01T09:36:28;30.00;41.40
62126;DHT22;48112;53.282;6.150;2022-07-01T09:38:31;30.00;40.10
62126;DHT22;48112;53.282;6.150;2022-07-01T09:40:48;29.90;39.80
62126;DHT22;48112;53.282;6.150;2022-07-01T09:42:52;29.70;38.90
62126;DHT22;48112;53.282;6.150;2022-07-01T09:44:56;29.40;40.00
62126;DHT22;48112;53.282;6.150;2022-07-01T09:47:07;29.00;40.10
62126;DHT22;48112;53.282;6.150;2022-07-01T09:49:10;28.70;39.80
62126;DHT22;48112;53.282;6.150;2022-07-01T09:51:14;28.70;40.40
62126;DHT22;48112;53.282;6.150;2022-07-01T09:53:20;28.50;40.10
62126;DHT22;48112;53.282;6.150;2022-07-01T09:55:23;27.60;40.00
62126;DHT22;48112;53.282;6.150;2022-07-01T09:57:27;26.90;41.00
62126;DHT22;48112;53.282;6.150;2022-07-01T09:59:30;26.30;42.10
62126;DHT22;48112;53.282;6.150;2022-07-01T10:01:34;25.80;43.20
62126;DHT22;48112;53.282;6.150;2022-07-01T10:03:38;25.30;44.20
62126;DHT22;48112;53.282;6.150;2022-07-01T10:05:45;24.90;45.10
62126;DHT22;48112;53.282;6.150;2022-07-01T10:07:57;24.40;46.20
62126;DHT22;48112;53.282;6.150;2022-07-01T10:10:20;24.20;47.60
62126;DHT22;48112;53.282;6.150;2022-07-01T10:12:33;23.80;48.50
62126;DHT22;48112;53.282;6.150;2022-07-01T10:14:38;23.50;48.50
62126;DHT22;48112;53.282;6.150;2022-07-01T10:16:45;23.20;49.30
62126;DHT22;48112;53.282;6.150;2022-07-01T10:18:51;22.90;49.50
62126;DHT22;48112;53.282;6.150;2022-07-01T10:20:56;22.60;49.90
62126;DHT22;48112;53.282;6.150;2022-07-01T10:23:01;22.30;50.40
62126;DHT22;48112;53.282;6.150;2022-07-01T10:25:32;22.00;50.80
62126;DHT22;48112;53.282;6.150;2022-07-01T10:27:36;21.70;51.60
62126;DHT22;48112;53.282;6.150;2022-07-01T10:29:39;21.40;51.60
62126;DHT22;48112;53.282;6.150;2022-07-01T10:31:44;21.20;51.90
62126;DHT22;48112;53.282;6.150;2022-07-01T10:33:49;21.10;51.90
62126;DHT22;48112;53.282;6.150;2022-07-01T10:35:53;21.00;52.80
62126;DHT22;48112;53.282;6.150;2022-07-01T10:37:56;21.30;53.10
62126;DHT22;48112;53.282;6.150;2022-07-01T10:40:01;21.80;53.20
62126;DHT22;48112;53.282;6.150;2022-07-01T10:42:05;22.00;52.70
62126;DHT22;48112;53.282;6.150;2022-07-01T10:44:20;22.10;52.20
62126;DHT22;48112;53.282;6.150;2022-07-01T10:46:42;22.10;52.30
62126;DHT22;48112;53.282;6.150;2022-07-01T10:48:48;22.10;52.50
62126;DHT22;48112;53.282;6.150;2022-07-01T10:50:52;22.20;52.30
62126;DHT22;48112;53.282;6.150;2022-07-01T10:53:05;22.50;52.90
62126;DHT22;48112;53.282;6.150;2022-07-01T10:55:11;22.90;51.30
62126;DHT22;48112;53.282;6.150;2022-07-01T10:57:29;23.20;51.40
62126;DHT22;48112;53.282;6.150;2022-07-01T10:59:33;23.40;48.60
62126;DHT22;48112;53.282;6.150;2022-07-01T11:01:37;23.60;50.20
62126;DHT22;48112;53.282;6.150;2022-07-01T11:03:42;23.60;49.00
62126;DHT22;48112;53.282;6.150;2022-07-01T11:05:48;23.80;48.90
62126;DHT22;48112;53.282;6.150;2022-07-01T11:07:55;24.10;48.60
62126;DHT22;48112;53.282;6.150;2022-07-01T11:09:59;24.50;48.40
62126;DHT22;48112;53.282;6.150;2022-07-01T11:12:06;25.00;48.00
62126;DHT22;48112;53.282;6.150;2022-07-01T11:14:11;25.30;47.40
62126;DHT22;48112;53.282;6.150;2022-07-01T11:16:15;25.90;47.30
62126;DHT22;48112;53.282;6.150;2022-07-01T11:18:19;26.30;46.30
62126;DHT22;48112;53.282;6.150;2022-07-01T11:20:23;26.50;45.30
62126;DHT22;48112;53.282;6.150;2022-07-01T11:22:29;26.50;45.00
62126;DHT22;48112;53.282;6.150;2022-07-01T11:24:34;26.40;44.80
62126;DHT22;48112;53.282;6.150;2022-07-01T11:26:40;26.10;45.00
62126;DHT22;48112;53.282;6.150;2022-07-01T11:28:47;25.60;44.50
62126;DHT22;48112;53.282;6.150;2022-07-01T11:30:59;24.90;44.40
62126;DHT22;48112;53.282;6.150;2022-07-01T11:33:02;24.50;45.30
62126;DHT22;48112;53.282;6.150;2022-07-01T11:35:06;24.10;46.20
62126;DHT22;48112;53.282;6.150;2022-07-01T11:37:31;23.80;46.70
62126;DHT22;48112;53.282;6.150;2022-07-01T11:40:03;23.80;47.00
62126;DHT22;48112;53.282;6.150;2022-07-01T11:42:07;24.00;46.40
62126;DHT22;48112;53.282;6.150;2022-07-01T11:44:10;24.20;46.90
62126;DHT22;48112;53.282;6.150;2022-07-01T11:46:18;24.50;47.00
62126;DHT22;48112;53.282;6.150;2022-07-01T11:48:37;24.80;46.20
62126;DHT22;48112;53.282;6.150;2022-07-01T11:50:40;25.00;44.80
62126;DHT22;48112;53.282;6.150;2022-07-01T11:52:44;25.20;45.80
62126;DHT22;48112;53.282;6.150;2022-07-01T11:54:50;25.60;45.90
62126;DHT22;48112;53.282;6.150;2022-07-01T11:56:54;26.10;44.10
62126;DHT22;48112;53.282;6.150;2022-07-01T11:59:09;26.40;44.00
62126;DHT22;48112;53.282;6.150;2022-07-01T12:01:26;26.30;42.90
62126;DHT22;48112;53.282;6.150;2022-07-01T12:03:30;25.90;41.50
62126;DHT22;48112;53.282;6.150;2022-07-01T12:05:34;25.60;42.50
62126;DHT22;48112;53.282;6.150;2022-07-01T12:07:39;25.20;42.50
62126;DHT22;48112;53.282;6.150;2022-07-01T12:09:42;24.80;43.00
62126;DHT22;48112;53.282;6.150;2022-07-01T12:11:47;24.60;43.30
62126;DHT22;48112;53.282;6.150;2022-07-01T12:13:51;24.50;43.90
62126;DHT22;48112;53.282;6.150;2022-07-01T12:15:54;24.50;44.50
62126;DHT22;48112;53.282;6.150;2022-07-01T12:18:09;24.80;45.20
62126;DHT22;48112;53.282;6.150;2022-07-01T12:20:13;25.20;45.50
62126;DHT22;48112;53.282;6.150;2022-07-01T12:22:17;25.40;44.80
62126;DHT22;48112;53.282;6.150;2022-07-01T12:24:21;25.70;44.60
62126;DHT22;48112;53.282;6.150;2022-07-01T12:26:24;25.90;43.60
62126;DHT22;48112;53.282;6.150;2022-07-01T12:28:32;25.80;43.00
62126;DHT22;48112;53.282;6.150;2022-07-01T12:30:36;25.70;42.50
62126;DHT22;48112;53.282;6.150;2022-07-01T12:32:39;25.60;42.80
62126;DHT22;48112;53.282;6.150;2022-07-01T12:34:49;25.60;42.90
62126;DHT22;48112;53.282;6.150;2022-07-01T12:36:55;25.90;42.80
62126;DHT22;48112;53.282;6.150;2022-07-01T12:39:03;26.20;42.20
62126;DHT22;48112;53.282;6.150;2022-07-01T12:41:27;26.40;41.30
62126;DHT22;48112;53.282;6.150;2022-07-01T12:43:39;26.50;40.60
62126;DHT22;48112;53.282;6.150;2022-07-01T12:45:42;26.30;41.10
62126;DHT22;48112;53.282;6.150;2022-07-01T12:47:46;26.20;41.00
62126;DHT22;48112;53.282;6.150;2022-07-01T12:50:08;25.90;41.10
62126;DHT22;48112;53.282;6.150;2022-07-01T12:52:23;25.70;40.90
62126;DHT22;48112;53.282;6.150;2022-07-01T12:54:31;25.50;41.30
62126;DHT22;48112;53.282;6.150;2022-07-01T12:56:34;25.40;41.30
62126;DHT22;48112;53.282;6.150;2022-07-01T12:58:38;25.50;41.70
62126;DHT22;48112;53.282;6.150;2022-07-01T13:00:44;25.60;41.40
62126;DHT22;48112;53.282;6.150;2022-07-01T13:02:51;25.60;41.20
62126;DHT22;48112;53.282;6.150;2022-07-01T13:04:55;25.80;40.70
62126;DHT22;48112;53.282;6.150;2022-07-01T13:06:59;25.80;40.10
62126;DHT22;48112;53.282;6.150;2022-07-01T13:09:02;25.80;40.10
62126;DHT22;48112;53.282;6.150;2022-07-01T13:11:06;25.70;39.80